KHST/HST METAR and TAF weather

Enter ICAO airport designator
Station Type Date Time Source
KHST METAR 2022/01/27 22:56 UTC NOAA

KHST 272256Z AUTO 11003KT 10SM -RA CLR 23/21 A2999 RMK AO2 RAB52 SLP159 P0000 T02300207


Station Type Date Time Source
KHST Decoded METAR 2022/01/27 22:56 UTC NOAA

Homestead Air Force Base, FL, United States (KHST) 25-29N 080-23W
Jan 27, 2022 - 05:56 PM EST / 2022.01.27 2256 UTC
Wind: from the ESE (110 degrees) at 3 MPH (3 KT):0
Visibility: 10 mile(s):0
Sky conditions: clear
Weather: light rain
Precipitation last hour: A trace
Temperature: 73.4 F (23.0 C)
Dew Point: 69.3 F (20.7 C)
Relative Humidity: 86%
Pressure (altimeter): 29.99 in. Hg (1015 hPa)
ob: KHST 272256Z AUTO 11003KT 10SM -RA CLR 23/21 A2999 RMK AO2 RAB52 SLP159 P0000 T02300207
cycle: 23

Station Type Date Time Source
KHST TAF 2022/01/27 20:06 UTC NOAA

TAF KHST 272000Z 2720/2902 33007KT 9999 VCSH SCT015 SCT025 BKN050 QNH2998INS
TEMPO 2720/2721 BKN015 BKN025
BECMG 2801/2802 35007KT 9999 NSW SCT015 BKN025 QNH2998INS
TEMPO 2805/2806 00000KT 4800 BR SCT005 BKN015 BKN025
BECMG 2816/2817 29012KT 9999 NSW SCT015 SCT025 BKN100 QNH2998INS TX25/2720Z TN17/2811Z

Example: see airport list